createdAt,value
2022-09-07T00:01:04.135Z,18.90
2022-09-07T00:03:32.248Z,18.90
2022-09-07T00:06:00.708Z,18.80
2022-09-07T00:08:29.038Z,18.80
2022-09-07T00:11:00.695Z,18.90
2022-09-07T00:13:31.352Z,18.90
2022-09-07T00:15:59.931Z,18.90
2022-09-07T00:18:28.121Z,18.80
2022-09-07T00:20:59.693Z,18.70
2022-09-07T00:23:29.389Z,18.60
2022-09-07T00:26:02.084Z,18.60
2022-09-07T00:28:30.982Z,18.50
2022-09-07T00:30:59.255Z,18.50
2022-09-07T00:33:27.868Z,18.50
2022-09-07T00:35:55.973Z,18.40
2022-09-07T00:38:24.109Z,18.40
2022-09-07T00:40:52.194Z,18.30
2022-09-07T00:43:31.949Z,18.30
2022-09-07T00:46:00.211Z,18.40
2022-09-07T00:48:32.690Z,18.30
2022-09-07T00:51:06.321Z,18.30
2022-09-07T00:53:39.019Z,18.20
2022-09-07T00:56:08.506Z,18.30
2022-09-07T00:58:40.433Z,18.10
2022-09-07T01:01:09.748Z,18.10
2022-09-07T01:03:42.221Z,18.30
2022-09-07T01:06:16.789Z,18.10
2022-09-07T01:08:46.264Z,18.00
2022-09-07T01:11:14.637Z,18.00
2022-09-07T01:13:45.854Z,18.00
2022-09-07T01:16:22.549Z,17.90
2022-09-07T01:18:59.190Z,18.00
2022-09-07T01:21:31.468Z,17.90
2022-09-07T01:24:39.180Z,17.80
2022-09-07T01:27:48.609Z,17.70
2022-09-07T01:30:19.753Z,17.70
2022-09-07T01:33:07.681Z,17.70
2022-09-07T01:35:45.999Z,17.80
2022-09-07T01:38:24.978Z,17.80
2022-09-07T01:41:00.618Z,17.70
2022-09-07T01:43:38.515Z,17.70
2022-09-07T01:46:11.836Z,17.70
2022-09-07T01:48:41.437Z,17.70
2022-09-07T01:51:12.825Z,17.60
2022-09-07T01:53:44.725Z,17.60
2022-09-07T01:56:15.077Z,17.60
2022-09-07T01:58:47.374Z,17.60
2022-09-07T02:01:22.014Z,17.70
2022-09-07T02:03:54.210Z,17.70
2022-09-07T02:06:25.529Z,17.70
2022-09-07T02:08:58.461Z,17.70
2022-09-07T02:11:33.644Z,17.80
2022-09-07T02:14:11.219Z,17.80
2022-09-07T02:16:46.554Z,17.70
2022-09-07T02:19:17.503Z,17.60
2022-09-07T02:21:49.861Z,17.60
2022-09-07T02:24:22.249Z,17.70
2022-09-07T02:26:53.102Z,17.70
2022-09-07T02:29:22.982Z,17.70
2022-09-07T02:31:51.643Z,17.70
2022-09-07T02:34:20.983Z,17.60
2022-09-07T02:36:51.185Z,17.70
2022-09-07T02:39:19.469Z,17.80
2022-09-07T02:41:47.852Z,17.80
2022-09-07T02:44:19.532Z,17.80
2022-09-07T02:47:00.336Z,17.80
2022-09-07T02:49:48.145Z,17.80
2022-09-07T02:52:24.628Z,17.70
2022-09-07T02:55:02.257Z,17.70
2022-09-07T02:57:39.826Z,17.70
2022-09-07T03:00:11.185Z,17.70
2022-09-07T03:02:50.658Z,17.60
2022-09-07T03:05:22.695Z,17.60
2022-09-07T03:07:56.132Z,17.60
2022-09-07T03:10:25.394Z,17.60
2022-09-07T03:12:53.811Z,17.70
2022-09-07T03:15:24.506Z,17.70
2022-09-07T03:17:53.988Z,17.70
2022-09-07T03:20:22.847Z,17.70
2022-09-07T03:22:51.818Z,17.80
2022-09-07T03:25:20.701Z,17.70
2022-09-07T03:27:48.752Z,17.70
2022-09-07T03:30:16.846Z,17.60
2022-09-07T03:32:44.970Z,17.60
2022-09-07T03:35:15.073Z,17.60
2022-09-07T03:37:43.407Z,17.50
2022-09-07T03:40:14.084Z,17.40
2022-09-07T03:42:42.662Z,17.30
2022-09-07T03:45:11.960Z,17.30
2022-09-07T03:47:40.129Z,17.30
2022-09-07T03:50:09.352Z,17.30
2022-09-07T03:52:39.257Z,17.30
2022-09-07T03:55:07.888Z,17.30
2022-09-07T03:57:36.148Z,17.30
2022-09-07T04:00:05.376Z,17.30
2022-09-07T04:02:33.426Z,17.20
2022-09-07T04:05:01.519Z,17.30
2022-09-07T04:07:29.534Z,17.20
2022-09-07T04:09:58.961Z,17.30
2022-09-07T04:12:27.147Z,17.30
2022-09-07T04:14:55.182Z,17.20
2022-09-07T04:17:23.190Z,17.20
2022-09-07T04:19:51.201Z,17.10
2022-09-07T04:22:19.165Z,17.00
2022-09-07T04:24:47.243Z,17.00
2022-09-07T04:27:16.570Z,17.10
2022-09-07T04:29:44.537Z,17.10
2022-09-07T04:32:15.834Z,17.10
2022-09-07T04:34:44.122Z,17.10
2022-09-07T04:37:12.554Z,17.10
2022-09-07T04:39:40.588Z,17.00
2022-09-07T04:42:08.822Z,17.00
2022-09-07T04:44:38.287Z,17.00
2022-09-07T04:47:06.429Z,17.00
2022-09-07T04:49:34.411Z,17.10
2022-09-07T04:52:02.754Z,17.10
2022-09-07T04:54:31.039Z,17.10
2022-09-07T04:56:59.132Z,17.20
2022-09-07T04:59:27.137Z,17.20
2022-09-07T05:01:56.542Z,17.20
2022-09-07T05:04:24.589Z,17.30
2022-09-07T05:06:54.225Z,17.40
2022-09-07T05:09:22.257Z,17.50
2022-09-07T05:11:50.469Z,17.60
2022-09-07T05:14:18.521Z,17.60
2022-09-07T05:16:46.580Z,17.60
2022-09-07T05:19:16.176Z,17.60
2022-09-07T05:21:44.290Z,17.50
2022-09-07T05:24:12.390Z,17.60
2022-09-07T05:26:40.416Z,17.80
2022-09-07T05:31:57.169Z,18.30
2022-09-07T05:36:54.833Z,18.50
2022-09-07T05:39:22.807Z,18.70
2022-09-07T05:41:50.776Z,18.60
2022-09-07T05:47:06.960Z,18.40
2022-09-07T05:49:36.311Z,18.40
2022-09-07T05:52:04.836Z,18.30
2022-09-07T05:54:32.872Z,18.20
2022-09-07T05:57:03.001Z,18.20
2022-09-07T05:59:30.993Z,18.20
2022-09-07T06:01:59.086Z,18.30
2022-09-07T06:04:27.226Z,18.30
2022-09-07T06:07:20.655Z,18.10
2022-09-07T06:12:32.552Z,18.00
2022-09-07T06:15:01.547Z,18.20
2022-09-07T06:17:29.813Z,18.30
2022-09-07T06:19:57.853Z,18.30
2022-09-07T06:22:30.750Z,18.40
2022-09-07T06:24:59.730Z,18.30
2022-09-07T06:27:27.986Z,18.30
2022-09-07T06:29:56.622Z,18.30
2022-09-07T06:35:09.046Z,18.40
2022-09-07T06:37:38.660Z,18.80
2022-09-07T06:40:08.538Z,19.10
2022-09-07T06:42:36.680Z,19.40
2022-09-07T06:45:05.438Z,19.70
2022-09-07T06:47:33.553Z,19.80
2022-09-07T06:50:01.604Z,20.10
2022-09-07T06:52:29.781Z,20.50
2022-09-07T06:54:59.625Z,20.80
2022-09-07T06:57:28.055Z,21.20
2022-09-07T06:59:56.134Z,21.50
2022-09-07T07:02:24.147Z,21.70
2022-09-07T07:04:52.120Z,22.10
2022-09-07T07:07:20.150Z,22.30
2022-09-07T07:09:50.739Z,22.30
2022-09-07T07:14:47.222Z,22.80
2022-09-07T07:17:15.276Z,22.80
2022-09-07T07:19:43.307Z,23.00
2022-09-07T07:22:29.482Z,23.10
2022-09-07T07:24:59.464Z,23.20
2022-09-07T07:27:31.546Z,23.30
2022-09-07T07:29:59.881Z,23.50
2022-09-07T07:32:27.899Z,23.50
2022-09-07T07:34:55.864Z,23.60
2022-09-07T07:37:27.966Z,23.60
2022-09-07T07:42:46.250Z,23.90
2022-09-07T07:48:04.046Z,24.30
2022-09-07T07:50:32.913Z,24.60
2022-09-07T07:55:50.053Z,24.70
2022-09-07T07:58:19.517Z,24.90
2022-09-07T08:00:54.796Z,25.00
2022-09-07T08:03:23.930Z,25.00
2022-09-07T08:05:52.252Z,25.10
2022-09-07T08:08:20.760Z,25.40
2022-09-07T08:10:49.011Z,25.50
2022-09-07T08:13:19.123Z,25.60
2022-09-07T08:15:47.406Z,25.70
2022-09-07T08:18:16.933Z,25.70
2022-09-07T08:20:45.412Z,25.70
2022-09-07T08:23:13.427Z,25.60
2022-09-07T08:25:50.786Z,25.60
2022-09-07T08:28:20.259Z,25.50
2022-09-07T08:30:48.785Z,25.70
2022-09-07T08:33:17.224Z,25.80
2022-09-07T08:35:55.678Z,26.10
2022-09-07T08:38:24.237Z,26.40
2022-09-07T08:40:53.000Z,26.60
2022-09-07T08:43:35.084Z,27.00
2022-09-07T08:46:10.199Z,26.90
2022-09-07T08:48:39.656Z,27.10
2022-09-07T08:51:14.037Z,27.20
2022-09-07T08:53:46.997Z,27.40
2022-09-07T08:56:22.935Z,27.50
2022-09-07T08:58:54.517Z,27.50
2022-09-07T09:01:31.627Z,27.20
2022-09-07T09:04:16.702Z,27.30
2022-09-07T09:06:56.088Z,27.30
2022-09-07T09:09:31.540Z,27.30
2022-09-07T09:12:10.146Z,27.40
2022-09-07T09:14:56.652Z,27.80
2022-09-07T09:17:30.224Z,28.00
2022-09-07T09:20:06.882Z,27.90
2022-09-07T09:22:36.289Z,27.60
2022-09-07T09:25:16.040Z,27.40
2022-09-07T09:27:44.410Z,27.40
2022-09-07T09:30:17.019Z,27.60
2022-09-07T09:32:47.197Z,27.80
2022-09-07T09:35:19.783Z,28.00
2022-09-07T09:37:49.495Z,28.20
2022-09-07T09:40:26.880Z,28.30
2022-09-07T09:43:03.790Z,28.20
2022-09-07T09:48:33.101Z,27.90
2022-09-07T09:54:02.641Z,28.00
2022-09-07T09:56:43.187Z,28.10
2022-09-07T10:05:28.787Z,28.40
2022-09-07T10:07:57.707Z,28.40
2022-09-07T10:10:27.665Z,28.70
2022-09-07T10:12:56.986Z,28.60
2022-09-07T10:15:39.947Z,28.40
2022-09-07T10:18:21.326Z,28.70
2022-09-07T10:20:50.768Z,29.10
2022-09-07T10:23:25.602Z,29.20
2022-09-07T10:25:53.868Z,29.40
2022-09-07T10:28:24.250Z,29.40
2022-09-07T10:31:15.031Z,29.30
2022-09-07T10:36:50.438Z,28.70
2022-09-07T10:39:24.356Z,28.90
2022-09-07T10:42:04.616Z,28.80
2022-09-07T10:44:47.705Z,28.80
2022-09-07T10:47:26.634Z,29.10
2022-09-07T10:52:57.407Z,29.30
2022-09-07T10:55:33.423Z,29.20
2022-09-07T10:58:17.001Z,29.20
2022-09-07T11:00:57.124Z,29.10
2022-09-07T11:03:49.943Z,29.30
2022-09-07T11:06:22.890Z,29.50
2022-09-07T11:09:18.150Z,29.60
2022-09-07T11:12:07.276Z,29.60
2022-09-07T11:14:42.076Z,29.30
2022-09-07T11:17:16.589Z,29.40
2022-09-07T11:19:51.264Z,29.60
2022-09-07T11:22:36.836Z,29.70
2022-09-07T11:25:31.584Z,29.30
2022-09-07T11:28:05.455Z,29.40
2022-09-07T11:30:39.622Z,29.90
2022-09-07T11:33:15.330Z,30.20
2022-09-07T11:35:52.078Z,30.10
2022-09-07T11:38:29.069Z,29.70
2022-09-07T11:41:03.839Z,29.60
2022-09-07T11:43:36.019Z,29.30
2022-09-07T11:46:08.868Z,29.40
2022-09-07T11:48:43.337Z,29.60
2022-09-07T11:51:21.955Z,29.70
2022-09-07T11:53:56.546Z,29.90
2022-09-07T11:56:35.858Z,29.90
2022-09-07T11:59:21.227Z,29.90
2022-09-07T12:02:05.714Z,29.90
2022-09-07T12:05:00.444Z,29.80
2022-09-07T12:07:50.146Z,29.70
2022-09-07T12:10:38.267Z,29.70
2022-09-07T12:13:29.190Z,29.60
2022-09-07T12:16:05.433Z,29.80
2022-09-07T12:18:55.928Z,30.40
2022-09-07T12:21:35.924Z,30.70
2022-09-07T12:24:04.985Z,30.80
2022-09-07T12:26:53.018Z,30.70
2022-09-07T12:29:24.841Z,30.40
2022-09-07T12:31:59.809Z,30.50
2022-09-07T12:35:00.556Z,30.50
2022-09-07T12:37:43.372Z,30.70
2022-09-07T12:40:49.414Z,30.70
2022-09-07T12:43:53.507Z,30.50
2022-09-07T12:46:46.740Z,30.90
2022-09-07T12:49:48.286Z,30.90
2022-09-07T12:52:51.454Z,30.90
2022-09-07T12:56:18.024Z,31.10
2022-09-07T12:59:19.616Z,31.30
2022-09-07T13:01:57.318Z,31.50
2022-09-07T13:04:43.977Z,31.80
2022-09-07T13:07:42.543Z,31.90
2022-09-07T13:10:26.599Z,31.80
2022-09-07T13:13:01.476Z,31.80
2022-09-07T13:15:53.000Z,31.60
2022-09-07T13:18:40.663Z,31.50
2022-09-07T13:21:32.667Z,31.80
2022-09-07T13:24:46.530Z,32.10
2022-09-07T13:27:45.139Z,32.50
2022-09-07T13:30:31.579Z,32.80
2022-09-07T13:33:51.016Z,32.30
2022-09-07T13:36:26.932Z,32.00
2022-09-07T13:38:56.331Z,31.90
2022-09-07T13:41:28.059Z,31.90
2022-09-07T13:44:00.999Z,31.70
2022-09-07T13:46:44.056Z,31.70
2022-09-07T13:49:25.423Z,31.70
2022-09-07T13:51:59.353Z,31.90
2022-09-07T13:54:38.218Z,32.00
2022-09-07T13:57:18.342Z,32.10
2022-09-07T13:59:48.844Z,32.10
2022-09-07T14:02:24.909Z,32.10
2022-09-07T14:04:56.559Z,32.10
2022-09-07T14:07:25.971Z,32.20
2022-09-07T14:10:07.338Z,32.10
2022-09-07T14:12:43.493Z,31.90
2022-09-07T14:15:23.084Z,31.80
2022-09-07T14:18:01.616Z,31.80
2022-09-07T14:20:33.094Z,31.80
2022-09-07T14:23:01.340Z,31.60
2022-09-07T14:25:29.752Z,31.60
2022-09-07T14:28:00.192Z,31.50
2022-09-07T14:30:30.521Z,31.50
2022-09-07T14:33:01.781Z,31.10
2022-09-07T14:35:35.824Z,30.80
2022-09-07T14:38:15.091Z,30.50
2022-09-07T14:40:43.668Z,30.30
2022-09-07T14:43:30.429Z,30.20
2022-09-07T14:46:18.054Z,30.20
2022-09-07T14:48:48.159Z,30.20
2022-09-07T14:51:34.680Z,30.20
2022-09-07T14:54:05.912Z,30.20
2022-09-07T14:56:36.251Z,30.30
2022-09-07T14:59:27.404Z,30.30
2022-09-07T15:02:31.700Z,30.30
2022-09-07T15:05:22.581Z,30.20
2022-09-07T15:07:54.905Z,30.00
2022-09-07T15:10:37.171Z,29.70
2022-09-07T15:13:07.222Z,29.60
2022-09-07T15:15:39.596Z,29.50
2022-09-07T15:18:42.508Z,29.40
2022-09-07T15:21:10.838Z,29.30
2022-09-07T15:23:40.284Z,29.20
2022-09-07T15:27:02.121Z,29.10
2022-09-07T15:29:14.235Z,28.90
2022-09-07T15:31:49.874Z,28.90
2022-09-07T15:34:24.914Z,28.70
2022-09-07T15:36:56.114Z,28.60
2022-09-07T15:39:28.025Z,28.60
2022-09-07T15:41:56.773Z,28.50
2022-09-07T15:44:27.863Z,28.40
2022-09-07T15:49:50.257Z,28.50
2022-09-07T15:52:19.645Z,28.50
2022-09-07T15:54:49.107Z,28.50
2022-09-07T16:00:06.696Z,28.50
2022-09-07T16:05:29.048Z,28.40
2022-09-07T16:11:05.385Z,28.30
2022-09-07T16:13:34.385Z,28.30
2022-09-07T16:16:05.694Z,28.20
2022-09-07T16:18:35.408Z,28.10
2022-09-07T16:21:11.916Z,28.10
2022-09-07T16:23:42.147Z,28.00
2022-09-07T16:26:12.829Z,27.90
2022-09-07T16:28:42.423Z,27.80
2022-09-07T16:31:15.206Z,27.80
2022-09-07T16:33:43.188Z,27.50
2022-09-07T16:36:14.231Z,27.40
2022-09-07T16:38:44.469Z,27.10
2022-09-07T16:41:16.412Z,27.10
2022-09-07T16:43:44.629Z,27.10
2022-09-07T16:46:15.189Z,27.00
2022-09-07T16:48:43.969Z,27.00
2022-09-07T16:51:14.401Z,27.00
2022-09-07T16:53:42.428Z,26.90
2022-09-07T16:56:12.260Z,26.80
2022-09-07T16:58:43.457Z,26.60
2022-09-07T17:01:13.212Z,26.60
2022-09-07T17:03:42.475Z,26.50
2022-09-07T17:06:13.165Z,26.50
2022-09-07T17:08:41.967Z,26.40
2022-09-07T17:11:12.331Z,26.30
2022-09-07T17:13:42.868Z,26.20
2022-09-07T17:16:13.861Z,26.10
2022-09-07T17:21:33.243Z,26.00
2022-09-07T17:24:01.802Z,26.00
2022-09-07T17:26:32.509Z,25.90
2022-09-07T17:29:02.087Z,25.70
2022-09-07T17:34:19.987Z,25.50
2022-09-07T17:36:48.186Z,25.40
2022-09-07T17:39:18.153Z,25.40
2022-09-07T17:41:47.253Z,25.30
2022-09-07T17:44:17.001Z,25.30
2022-09-07T17:46:45.081Z,25.10
2022-09-07T17:49:14.477Z,24.90
2022-09-07T17:51:42.751Z,24.70
2022-09-07T17:54:13.233Z,24.50
2022-09-07T17:56:42.430Z,24.30
2022-09-07T18:02:00.900Z,24.20
2022-09-07T18:04:29.402Z,24.00
2022-09-07T18:07:02.406Z,24.00
2022-09-07T18:09:31.249Z,24.00
2022-09-07T18:11:59.447Z,24.00
2022-09-07T18:14:28.329Z,23.80
2022-09-07T18:16:56.813Z,23.60
2022-09-07T18:19:26.115Z,23.50
2022-09-07T18:21:54.233Z,23.30
2022-09-07T18:24:24.442Z,23.20
2022-09-07T18:26:55.153Z,23.00
2022-09-07T18:29:29.446Z,22.90
2022-09-07T18:31:59.755Z,22.80
2022-09-07T18:34:31.483Z,22.90
2022-09-07T18:37:00.034Z,22.80
2022-09-07T18:39:28.876Z,22.90
2022-09-07T18:41:56.991Z,22.80
2022-09-07T18:47:21.626Z,22.80
2022-09-07T18:49:54.876Z,22.80
2022-09-07T18:55:12.507Z,22.80
2022-09-07T18:57:40.584Z,22.80
2022-09-07T19:00:10.913Z,22.80
2022-09-07T19:02:39.822Z,22.80
2022-09-07T19:07:59.414Z,22.50
2022-09-07T19:10:27.602Z,22.40
2022-09-07T19:12:59.145Z,22.40
2022-09-07T19:15:27.214Z,22.30
2022-09-07T19:17:55.302Z,22.30
2022-09-07T19:20:26.034Z,22.30
2022-09-07T19:22:55.897Z,22.30
2022-09-07T19:25:24.549Z,22.20
2022-09-07T19:27:53.114Z,22.30
2022-09-07T19:30:21.079Z,22.20
2022-09-07T19:32:50.986Z,22.20
2022-09-07T19:35:19.180Z,22.10
2022-09-07T19:37:49.469Z,22.10
2022-09-07T19:40:20.833Z,22.10
2022-09-07T19:42:48.942Z,22.10
2022-09-07T19:45:17.093Z,22.20
2022-09-07T19:47:45.764Z,22.20
2022-09-07T19:50:13.925Z,22.20
2022-09-07T19:52:42.584Z,22.20
2022-09-07T19:55:12.264Z,22.10
2022-09-07T19:57:40.265Z,21.90
2022-09-07T20:00:09.963Z,21.80
2022-09-07T20:02:38.448Z,21.80
2022-09-07T20:05:07.309Z,21.70
2022-09-07T20:07:35.600Z,21.50
2022-09-07T20:10:03.727Z,21.40
2022-09-07T20:12:33.386Z,21.30
2022-09-07T20:15:01.391Z,21.30
2022-09-07T20:17:35.109Z,21.30
2022-09-07T20:20:04.366Z,21.30
2022-09-07T20:22:32.451Z,21.30
2022-09-07T20:25:00.578Z,21.40
2022-09-07T20:27:28.781Z,21.40
2022-09-07T20:29:58.283Z,21.40
2022-09-07T20:32:28.378Z,21.40
2022-09-07T20:34:56.824Z,21.40
2022-09-07T20:37:27.518Z,21.50
2022-09-07T20:39:56.864Z,21.50
2022-09-07T20:42:28.366Z,21.40
2022-09-07T20:44:58.063Z,21.40
2022-09-07T20:47:26.071Z,21.30
2022-09-07T20:49:54.093Z,21.30
2022-09-07T20:52:22.116Z,21.40
2022-09-07T20:54:50.995Z,21.20
2022-09-07T20:57:19.032Z,21.10
2022-09-07T20:59:47.041Z,20.90
2022-09-07T21:02:16.491Z,20.70
2022-09-07T21:04:45.070Z,20.70
2022-09-07T21:07:13.058Z,20.80
2022-09-07T21:09:41.103Z,20.80
2022-09-07T21:12:09.395Z,20.90
2022-09-07T21:14:37.445Z,20.70
2022-09-07T21:17:05.715Z,20.70
2022-09-07T21:19:37.056Z,20.60
2022-09-07T21:22:05.081Z,20.60
2022-09-07T21:24:33.055Z,20.50
2022-09-07T21:27:01.035Z,20.50
2022-09-07T21:29:28.996Z,20.60
2022-09-07T21:31:57.058Z,20.60
2022-09-07T21:34:25.137Z,20.40
2022-09-07T21:36:54.539Z,20.40
2022-09-07T21:39:22.814Z,20.30
2022-09-07T21:41:50.887Z,20.30
2022-09-07T21:44:19.163Z,20.40
2022-09-07T21:46:47.578Z,20.40
2022-09-07T21:49:15.704Z,20.40
2022-09-07T21:51:43.726Z,20.30
2022-09-07T21:54:13.230Z,20.10
2022-09-07T21:56:46.378Z,20.00
2022-09-07T21:59:14.989Z,20.00
2022-09-07T22:01:43.013Z,20.00
2022-09-07T22:04:11.085Z,20.10
2022-09-07T22:06:39.877Z,20.30
2022-09-07T22:09:08.305Z,20.30
2022-09-07T22:11:37.779Z,20.20
2022-09-07T22:14:07.198Z,20.30
2022-09-07T22:16:36.293Z,20.40
2022-09-07T22:19:04.843Z,20.40
2022-09-07T22:21:33.016Z,20.40
2022-09-07T22:24:02.960Z,20.50
2022-09-07T22:26:33.195Z,20.50
2022-09-07T22:29:02.519Z,20.60
2022-09-07T22:31:32.383Z,20.30
2022-09-07T22:34:02.030Z,20.10
2022-09-07T22:36:32.394Z,20.00
2022-09-07T22:39:02.350Z,20.00
2022-09-07T22:41:32.112Z,20.00
2022-09-07T22:44:00.784Z,20.20
2022-09-07T22:46:31.863Z,20.20
2022-09-07T22:49:00.346Z,20.20
2022-09-07T22:51:28.983Z,20.20
2022-09-07T22:53:57.495Z,20.30
2022-09-07T22:56:26.891Z,20.40
2022-09-07T22:58:57.086Z,20.30
2022-09-07T23:01:25.809Z,20.10
2022-09-07T23:03:56.156Z,19.90
2022-09-07T23:06:26.280Z,19.80
2022-09-07T23:08:55.579Z,19.60
2022-09-07T23:11:25.026Z,19.60
2022-09-07T23:13:53.856Z,19.50
2022-09-07T23:16:22.153Z,19.60
2022-09-07T23:18:50.216Z,19.60
2022-09-07T23:21:20.120Z,19.60
2022-09-07T23:23:52.121Z,19.70
2022-09-07T23:26:20.784Z,19.60
2022-09-07T23:28:52.599Z,19.60
2022-09-07T23:31:20.737Z,19.60
2022-09-07T23:33:49.333Z,19.70
2022-09-07T23:36:19.642Z,19.70
2022-09-07T23:38:48.031Z,19.70
2022-09-07T23:41:17.310Z,19.80
2022-09-07T23:43:45.771Z,19.80
2022-09-07T23:46:14.557Z,19.80
2022-09-07T23:48:44.572Z,19.90
2022-09-07T23:51:12.662Z,19.90
2022-09-07T23:53:42.306Z,19.90
2022-09-07T23:56:10.270Z,19.80
2022-09-07T23:58:38.773Z,19.90
